createdAt,value
2019-04-06T00:00:02.456Z,8
2019-04-06T00:00:06.700Z,8
2019-04-06T00:00:11.038Z,7.99
2019-04-06T00:00:15.366Z,8
2019-04-06T00:00:19.479Z,7.98
2019-04-06T00:00:23.773Z,7.99
2019-04-06T00:00:28.067Z,7.99
2019-04-06T00:00:32.355Z,7.98
2019-04-06T00:00:36.648Z,7.98
2019-04-06T00:00:40.946Z,7.97
2019-04-06T00:00:45.240Z,7.98
2019-04-06T00:00:49.552Z,7.96
2019-04-06T00:00:53.669Z,7.97
2019-04-06T00:00:58.034Z,7.97
2019-04-06T00:01:02.403Z,7.97
2019-04-06T00:01:06.709Z,7.97
2019-04-06T00:01:11.047Z,7.97
2019-04-06T00:01:15.345Z,7.97
2019-04-06T00:01:19.637Z,7.97
2019-04-06T00:01:23.935Z,7.97
2019-04-06T00:01:28.271Z,7.96
2019-04-06T00:01:32.468Z,7.96
2019-04-06T00:01:36.715Z,7.96
2019-04-06T00:01:41.009Z,7.96
2019-04-06T00:01:45.299Z,7.96
2019-04-06T00:01:49.602Z,7.96
2019-04-06T00:01:53.906Z,7.96
2019-04-06T00:01:58.069Z,7.95
2019-04-06T00:02:02.551Z,7.95
2019-04-06T00:02:06.767Z,7.94
2019-04-06T00:02:10.967Z,7.94
2019-04-06T00:02:15.261Z,7.94
2019-04-06T00:02:19.269Z,7.95
2019-04-06T00:02:23.561Z,7.94
2019-04-06T00:02:27.858Z,7.93
2019-04-06T00:02:32.053Z,7.93
2019-04-06T00:02:36.377Z,7.92
2019-04-06T00:02:40.689Z,7.93
2019-04-06T00:02:44.893Z,7.93
2019-04-06T00:02:49.206Z,7.92
2019-04-06T00:02:53.323Z,7.92
2019-04-06T00:02:57.618Z,7.92
2019-04-06T00:03:02.013Z,7.92
2019-04-06T00:03:06.308Z,7.92
2019-04-06T00:03:10.643Z,7.92
2019-04-06T00:03:14.941Z,7.92
2019-04-06T00:03:19.238Z,7.92
2019-04-06T00:03:23.536Z,7.91
2019-04-06T00:03:27.734Z,7.92
2019-04-06T00:03:31.922Z,7.92
2019-04-06T00:03:36.127Z,7.92
2019-04-06T00:03:40.430Z,7.91
2019-04-06T00:03:44.660Z,7.92
2019-04-06T00:03:48.945Z,7.92
2019-04-06T00:03:55.668Z,7.92
2019-04-06T00:03:59.893Z,7.91
2019-04-06T00:04:04.328Z,7.92
2019-04-06T00:04:08.647Z,7.92
2019-04-06T00:04:12.890Z,7.91
2019-04-06T00:04:17.166Z,7.91
2019-04-06T00:04:21.370Z,7.91
2019-04-06T00:04:25.575Z,7.91
2019-04-06T00:04:29.871Z,7.91
2019-04-06T00:04:33.970Z,7.91
2019-04-06T00:04:38.227Z,7.9
2019-04-06T00:04:42.468Z,7.91
2019-04-06T00:04:46.667Z,7.9
2019-04-06T00:04:51.060Z,7.91
2019-04-06T00:04:55.270Z,7.91
2019-04-06T00:04:59.570Z,7.91
2019-04-06T00:05:03.866Z,7.9
2019-04-06T00:05:08.176Z,7.91
2019-04-06T00:05:12.480Z,7.9
2019-04-06T00:05:16.806Z,7.91
2019-04-06T00:05:21.102Z,7.9
2019-04-06T00:05:25.411Z,7.91
2019-04-06T00:05:29.713Z,7.91
2019-04-06T00:05:34.028Z,7.9
2019-04-06T00:05:38.222Z,7.91
2019-04-06T00:05:42.582Z,7.9
2019-04-06T00:05:46.914Z,7.9
2019-04-06T00:05:51.052Z,7.9
2019-04-06T00:05:55.386Z,7.91
2019-04-06T00:05:59.684Z,7.9
2019-04-06T00:06:04.124Z,7.9
2019-04-06T00:06:08.424Z,7.9
2019-04-06T00:06:12.740Z,7.9
2019-04-06T00:06:17.093Z,7.89
2019-04-06T00:06:21.482Z,7.89
2019-04-06T00:06:25.714Z,7.9
2019-04-06T00:06:29.913Z,7.89
2019-04-06T00:06:34.213Z,7.89
2019-04-06T00:06:38.344Z,7.89
2019-04-06T00:06:42.543Z,7.89
2019-04-06T00:06:46.852Z,7.89
2019-04-06T00:06:51.206Z,7.9
2019-04-06T00:06:55.513Z,7.9
2019-04-06T00:06:59.714Z,7.89
2019-04-06T00:07:03.915Z,7.89
2019-04-06T00:07:08.014Z,7.89
2019-04-06T00:07:12.282Z,7.89
2019-04-06T00:07:16.597Z,7.89
2019-04-06T00:07:20.984Z,7.9
2019-04-06T00:07:25.212Z,7.9
2019-04-06T00:07:29.564Z,7.9
2019-04-06T00:07:33.770Z,7.9
2019-04-06T00:07:38.082Z,7.9
2019-04-06T00:07:42.377Z,7.9
2019-04-06T00:07:46.676Z,7.9
2019-04-06T00:07:50.968Z,7.9
2019-04-06T00:07:55.266Z,7.9
2019-04-06T00:07:59.567Z,7.9
2019-04-06T00:08:03.978Z,7.9
2019-04-06T00:08:08.293Z,7.91
2019-04-06T00:08:12.646Z,7.91
2019-04-06T00:08:16.950Z,7.91
2019-04-06T00:08:21.183Z,7.92
2019-04-06T00:08:25.515Z,7.92
2019-04-06T00:08:29.827Z,7.92
2019-04-06T00:08:34.049Z,7.92
2019-04-06T00:08:38.356Z,7.91
2019-04-06T00:08:42.610Z,7.92
2019-04-06T00:08:46.817Z,7.93
2019-04-06T00:08:51.127Z,7.92
2019-04-06T00:08:55.431Z,7.93
2019-04-06T00:08:59.726Z,7.93
2019-04-06T00:09:04.025Z,7.93
2019-04-06T00:09:08.322Z,7.94
2019-04-06T00:09:12.618Z,7.94
2019-04-06T00:09:16.917Z,7.94
2019-04-06T00:09:21.212Z,7.94
2019-04-06T00:09:25.497Z,7.94
2019-04-06T00:09:29.624Z,7.93
2019-04-06T00:09:33.916Z,7.93
2019-04-06T00:09:38.137Z,7.95
2019-04-06T00:09:42.432Z,7.95
2019-04-06T00:09:46.734Z,7.94
2019-04-06T00:09:50.940Z,7.94
2019-04-06T00:09:55.153Z,7.95
2019-04-06T00:09:59.428Z,7.95
2019-04-06T00:10:03.640Z,7.96
2019-04-06T00:10:07.752Z,7.96
2019-04-06T00:10:11.914Z,7.96
2019-04-06T00:10:16.276Z,7.96
2019-04-06T00:10:20.578Z,7.97
2019-04-06T00:10:24.889Z,7.96
2019-04-06T00:10:29.091Z,7.97
2019-04-06T00:10:33.398Z,7.97
2019-04-06T00:10:37.695Z,7.97
2019-04-06T00:10:42.049Z,7.97
2019-04-06T00:10:46.253Z,7.98
2019-04-06T00:10:50.547Z,7.97
2019-04-06T00:10:57.339Z,7.98
2019-04-06T00:11:01.642Z,7.98
2019-04-06T00:11:05.945Z,7.99
2019-04-06T00:11:10.148Z,7.98
2019-04-06T00:11:14.481Z,7.99
2019-04-06T00:11:18.790Z,7.99
2019-04-06T00:11:22.986Z,7.99
2019-04-06T00:11:27.186Z,7.99
2019-04-06T00:11:31.480Z,7.99
2019-04-06T00:11:35.716Z,7.99
2019-04-06T00:11:40.096Z,8.01
2019-04-06T00:11:44.423Z,8.01
2019-04-06T00:11:48.638Z,8
2019-04-06T00:11:53.052Z,8
2019-04-06T00:11:57.251Z,8
2019-04-06T00:12:01.548Z,8.01
2019-04-06T00:12:05.867Z,8.01
2019-04-06T00:12:10.165Z,8.01
2019-04-06T00:12:14.475Z,8.01
2019-04-06T00:12:18.591Z,8.01
2019-04-06T00:12:22.898Z,8.01
2019-04-06T00:12:27.101Z,8.02
2019-04-06T00:12:31.456Z,8.02
2019-04-06T00:12:35.664Z,8.02
2019-04-06T00:12:39.980Z,8.02
2019-04-06T00:12:44.184Z,8.02
2019-04-06T00:12:48.382Z,8.03
2019-04-06T00:12:52.580Z,8.03
2019-04-06T00:12:56.781Z,8.03
2019-04-06T00:13:00.983Z,8.03
2019-04-06T00:13:05.502Z,8.03
2019-04-06T00:13:09.799Z,8.03
2019-04-06T00:13:14.015Z,8.03
2019-04-06T00:13:18.424Z,8.03
2019-04-06T00:13:22.636Z,8.04
2019-04-06T00:13:26.935Z,8.04
2019-04-06T00:13:30.953Z,8.04
2019-04-06T00:13:35.279Z,8.05
2019-04-06T00:13:39.622Z,8.04
2019-04-06T00:13:43.785Z,8.05
2019-04-06T00:13:48.082Z,8.05
2019-04-06T00:13:52.370Z,8.05
2019-04-06T00:13:56.601Z,8.05
2019-04-06T00:14:00.892Z,8.05
2019-04-06T00:14:05.089Z,8.05
2019-04-06T00:14:09.295Z,8.05
2019-04-06T00:14:13.598Z,8.06
2019-04-06T00:14:17.802Z,8.06
2019-04-06T00:14:22.030Z,8.05
2019-04-06T00:14:26.251Z,8.05
2019-04-06T00:14:30.455Z,8.05
2019-04-06T00:14:34.650Z,8.06
2019-04-06T00:14:38.963Z,8.06
2019-04-06T00:14:43.277Z,8.06
2019-04-06T00:14:47.516Z,8.06
2019-04-06T00:14:51.789Z,8.06
2019-04-06T00:14:55.985Z,8.06
2019-04-06T00:15:00.324Z,8.07
2019-04-06T00:15:04.602Z,8.06
2019-04-06T00:15:08.965Z,8.07
2019-04-06T00:15:13.186Z,8.07
2019-04-06T00:15:17.474Z,8.07
2019-04-06T00:15:21.669Z,8.06
2019-04-06T00:15:25.973Z,8.07
2019-04-06T00:15:30.271Z,8.07
2019-04-06T00:15:34.580Z,8.07
2019-04-06T00:15:38.883Z,8.07
2019-04-06T00:15:43.176Z,8.08
2019-04-06T00:15:47.489Z,8.07
2019-04-06T00:15:51.790Z,8.08
2019-04-06T00:15:55.998Z,8.08
2019-04-06T00:16:00.300Z,8.08
2019-04-06T00:16:04.672Z,8.07
2019-04-06T00:16:08.800Z,8.08
2019-04-06T00:16:13.013Z,8.08
2019-04-06T00:16:17.110Z,8.08
2019-04-06T00:16:21.174Z,8.08
2019-04-06T00:16:25.508Z,8.09
2019-04-06T00:16:29.812Z,8.08
2019-04-06T00:16:34.189Z,8.09
2019-04-06T00:16:38.533Z,8.08
2019-04-06T00:16:42.731Z,8.08
2019-04-06T00:16:47.097Z,8.07
2019-04-06T00:16:51.344Z,8.08
2019-04-06T00:16:55.673Z,8.08
2019-04-06T00:17:00.020Z,8.08
2019-04-06T00:17:04.423Z,8.08
2019-04-06T00:17:08.628Z,8.09
2019-04-06T00:17:12.952Z,8.08
2019-04-06T00:17:17.399Z,8.08
2019-04-06T00:17:21.665Z,8.08
2019-04-06T00:17:25.886Z,8.09
2019-04-06T00:17:30.282Z,8.09
2019-04-06T00:17:34.603Z,8.08
2019-04-06T00:17:38.908Z,8.08
2019-04-06T00:17:43.224Z,8.08
2019-04-06T00:17:47.517Z,8.08
2019-04-06T00:17:51.742Z,8.08
2019-04-06T00:17:55.940Z,8.08
2019-04-06T00:18:00.172Z,8.07
2019-04-06T00:18:04.274Z,8.08
2019-04-06T00:18:08.338Z,8.07
2019-04-06T00:18:12.593Z,8.08
2019-04-06T00:18:16.799Z,8.08
2019-04-06T00:18:20.992Z,8.08
2019-04-06T00:18:25.285Z,8.07
2019-04-06T00:18:29.473Z,8.07
2019-04-06T00:18:33.684Z,8.08
2019-04-06T00:18:37.923Z,8.08
2019-04-06T00:18:41.923Z,8.08
2019-04-06T00:18:46.224Z,8.08
2019-04-06T00:18:50.517Z,8.09
2019-04-06T00:18:54.805Z,8.08
2019-04-06T00:18:59.100Z,8.08
2019-04-06T00:19:03.323Z,8.08
2019-04-06T00:19:07.573Z,8.09
2019-04-06T00:19:11.858Z,8.07
2019-04-06T00:19:16.265Z,8.07
2019-04-06T00:19:20.569Z,8.07
2019-04-06T00:19:24.869Z,8.08
2019-04-06T00:19:29.198Z,8.07
2019-04-06T00:19:33.492Z,8.07
2019-04-06T00:19:37.782Z,8.06
2019-04-06T00:19:41.989Z,8.07
2019-04-06T00:19:46.300Z,8.07
2019-04-06T00:19:50.723Z,8.06
2019-04-06T00:19:54.956Z,8.06
2019-04-06T00:19:59.144Z,8.06
2019-04-06T00:20:03.449Z,8.06
2019-04-06T00:20:07.656Z,8.06
2019-04-06T00:20:12.014Z,8.06
2019-04-06T00:20:16.315Z,8.06
2019-04-06T00:20:20.605Z,8.06
2019-04-06T00:20:24.925Z,8.05
2019-04-06T00:20:29.222Z,8.05
2019-04-06T00:20:33.565Z,8.05
2019-04-06T00:20:37.758Z,8.06
2019-04-06T00:20:42.112Z,8.05
2019-04-06T00:20:46.351Z,8.04
2019-04-06T00:20:50.643Z,8.06
2019-04-06T00:20:54.858Z,8.04
2019-04-06T00:20:59.162Z,8.05
2019-04-06T00:21:03.507Z,8.04
2019-04-06T00:21:07.795Z,8.04
2019-04-06T00:21:12.096Z,8.04
2019-04-06T00:21:16.394Z,8.05
2019-04-06T00:21:20.605Z,8.04
2019-04-06T00:21:24.815Z,8.04
2019-04-06T00:21:29.214Z,8.03
2019-04-06T00:21:33.519Z,8.03
2019-04-06T00:21:37.859Z,8.04
2019-04-06T00:21:42.147Z,8.03
2019-04-06T00:21:46.487Z,8.03
2019-04-06T00:21:50.798Z,8.03
2019-04-06T00:21:55.148Z,8.03
2019-04-06T00:21:59.458Z,8.03
2019-04-06T00:22:03.686Z,8.03
2019-04-06T00:22:07.966Z,8.03
2019-04-06T00:22:12.314Z,8.03
2019-04-06T00:22:16.509Z,8.03
2019-04-06T00:22:20.819Z,8.04
2019-04-06T00:22:25.203Z,8.03
2019-04-06T00:22:29.419Z,8.03
2019-04-06T00:22:33.669Z,8.02
2019-04-06T00:22:37.978Z,8.02
2019-04-06T00:22:42.268Z,8.03
2019-04-06T00:22:46.567Z,8.03
2019-04-06T00:22:50.859Z,8.02
2019-04-06T00:22:55.155Z,8.02
2019-04-06T00:22:59.465Z,8.02
2019-04-06T00:23:03.762Z,8.02
2019-04-06T00:23:08.049Z,8.02
2019-04-06T00:23:12.348Z,8.02
2019-04-06T00:23:16.649Z,8.01
2019-04-06T00:23:20.943Z,8.01
2019-04-06T00:23:25.229Z,8.01
2019-04-06T00:23:29.544Z,8
2019-04-06T00:23:33.883Z,8.01
2019-04-06T00:23:38.242Z,8.01
2019-04-06T00:23:42.532Z,8.01
2019-04-06T00:23:46.720Z,8
2019-04-06T00:23:51.011Z,8
2019-04-06T00:23:55.260Z,8
2019-04-06T00:23:59.542Z,8
2019-04-06T00:24:03.884Z,8
2019-04-06T00:24:08.177Z,8
2019-04-06T00:24:12.476Z,8.01
2019-04-06T00:24:16.794Z,7.99
2019-04-06T00:24:21.082Z,8
2019-04-06T00:24:25.378Z,7.99
2019-04-06T00:24:29.677Z,7.99
2019-04-06T00:24:33.996Z,7.99
2019-04-06T00:24:38.293Z,8
2019-04-06T00:24:42.601Z,7.99
2019-04-06T00:24:46.994Z,8
2019-04-06T00:24:51.308Z,7.98
2019-04-06T00:24:55.607Z,7.99
2019-04-06T00:24:59.927Z,7.99
2019-04-06T00:25:04.227Z,7.98
2019-04-06T00:25:08.547Z,7.99
2019-04-06T00:25:12.843Z,7.99
2019-04-06T00:25:17.145Z,7.99
2019-04-06T00:25:21.374Z,7.98
2019-04-06T00:25:25.671Z,7.98
2019-04-06T00:25:30.063Z,7.99
2019-04-06T00:25:45.808Z,7.98
2019-04-06T00:25:50.024Z,7.98
2019-04-06T00:25:54.271Z,7.98
2019-04-06T00:25:58.563Z,7.98
2019-04-06T00:26:02.861Z,7.98
2019-04-06T00:26:07.198Z,7.97
2019-04-06T00:26:11.502Z,7.97
2019-04-06T00:26:15.814Z,7.98
2019-04-06T00:26:20.163Z,7.98
2019-04-06T00:26:24.502Z,7.97
2019-04-06T00:26:28.792Z,7.97
2019-04-06T00:26:33.125Z,7.97
2019-04-06T00:26:37.459Z,7.97
2019-04-06T00:26:41.752Z,7.97
2019-04-06T00:26:45.957Z,7.97
2019-04-06T00:26:50.250Z,7.97
2019-04-06T00:26:54.538Z,7.97
2019-04-06T00:26:58.835Z,7.96
2019-04-06T00:27:03.129Z,7.97
2019-04-06T00:27:07.331Z,7.97
2019-04-06T00:27:11.619Z,7.96
2019-04-06T00:27:15.912Z,7.95
2019-04-06T00:27:20.117Z,7.97
2019-04-06T00:27:26.821Z,7.95
2019-04-06T00:27:31.161Z,7.95
2019-04-06T00:27:35.459Z,7.96
2019-04-06T00:27:39.754Z,7.95
2019-04-06T00:27:44.052Z,7.96
2019-04-06T00:27:48.356Z,7.95
2019-04-06T00:27:52.543Z,7.94
2019-04-06T00:27:56.842Z,7.94
2019-04-06T00:28:01.162Z,7.95
2019-04-06T00:28:05.457Z,7.93
2019-04-06T00:28:09.786Z,7.94
2019-04-06T00:28:14.108Z,7.94
2019-04-06T00:28:18.535Z,7.93
2019-04-06T00:28:22.826Z,7.93
2019-04-06T00:28:27.122Z,7.93
2019-04-06T00:28:31.455Z,7.94
2019-04-06T00:28:35.751Z,7.92
2019-04-06T00:28:39.947Z,7.91
2019-04-06T00:28:44.184Z,7.92
2019-04-06T00:28:48.376Z,7.92
2019-04-06T00:28:52.568Z,7.91
2019-04-06T00:28:56.905Z,7.91
2019-04-06T00:29:01.282Z,7.91
2019-04-06T00:29:05.684Z,7.91
2019-04-06T00:29:09.889Z,7.9
2019-04-06T00:29:14.182Z,7.9
2019-04-06T00:29:18.388Z,7.89
2019-04-06T00:29:22.757Z,7.9
2019-04-06T00:29:27.174Z,7.9
2019-04-06T00:29:31.394Z,7.9
2019-04-06T00:29:35.773Z,7.89
2019-04-06T00:29:39.968Z,7.89
2019-04-06T00:29:44.285Z,7.89
2019-04-06T00:29:48.576Z,7.89
2019-04-06T00:29:52.887Z,7.89
2019-04-06T00:29:57.181Z,7.88
2019-04-06T00:30:01.477Z,7.88
2019-04-06T00:30:05.780Z,7.87
2019-04-06T00:30:10.071Z,7.88
2019-04-06T00:30:14.366Z,7.88
2019-04-06T00:30:18.664Z,7.87
2019-04-06T00:30:22.957Z,7.88
2019-04-06T00:30:27.246Z,7.87
2019-04-06T00:30:31.570Z,7.87
2019-04-06T00:30:35.866Z,7.87
2019-04-06T00:30:40.185Z,7.85
2019-04-06T00:30:44.558Z,7.86
2019-04-06T00:30:48.862Z,7.87
2019-04-06T00:30:53.194Z,7.85
2019-04-06T00:30:57.523Z,7.84
2019-04-06T00:31:01.964Z,7.85
2019-04-06T00:31:06.268Z,7.84
2019-04-06T00:31:10.559Z,7.85
2019-04-06T00:31:14.854Z,7.83
2019-04-06T00:31:19.150Z,7.83
2019-04-06T00:31:23.441Z,7.83
2019-04-06T00:31:27.733Z,7.84
2019-04-06T00:31:31.930Z,7.83
2019-04-06T00:31:36.232Z,7.83
2019-04-06T00:31:40.482Z,7.83
2019-04-06T00:31:44.792Z,7.83
2019-04-06T00:31:49.116Z,7.82
2019-04-06T00:31:53.421Z,7.82
2019-04-06T00:31:57.770Z,7.82
2019-04-06T00:32:02.114Z,7.82
2019-04-06T00:32:06.429Z,7.82
2019-04-06T00:32:10.713Z,7.82
2019-04-06T00:32:15.049Z,7.81
2019-04-06T00:32:19.342Z,7.81
2019-04-06T00:32:23.659Z,7.82
2019-04-06T00:32:27.971Z,7.82
2019-04-06T00:32:32.281Z,7.82
2019-04-06T00:32:36.627Z,7.81
2019-04-06T00:32:40.967Z,7.81
2019-04-06T00:32:45.295Z,7.82
2019-04-06T00:32:49.581Z,7.8
2019-04-06T00:32:53.933Z,7.8
2019-04-06T00:32:58.223Z,7.81
2019-04-06T00:33:02.517Z,7.8
2019-04-06T00:33:06.810Z,7.8
2019-04-06T00:33:11.070Z,7.81
2019-04-06T00:33:15.375Z,7.8
2019-04-06T00:33:19.673Z,7.8
2019-04-06T00:33:23.966Z,7.8
2019-04-06T00:33:28.258Z,7.8
2019-04-06T00:33:32.546Z,7.81
2019-04-06T00:33:36.831Z,7.81
2019-04-06T00:33:41.212Z,7.81
2019-04-06T00:33:45.510Z,7.81
2019-04-06T00:33:49.826Z,7.8
2019-04-06T00:33:54.022Z,7.81
2019-04-06T00:33:58.227Z,7.81
2019-04-06T00:34:02.675Z,7.8
2019-04-06T00:34:07.014Z,7.8
2019-04-06T00:34:11.311Z,7.81
2019-04-06T00:34:15.617Z,7.8
2019-04-06T00:34:19.910Z,7.81
2019-04-06T00:34:24.200Z,7.81
2019-04-06T00:34:28.491Z,7.8
2019-04-06T00:34:32.782Z,7.81
2019-04-06T00:34:37.073Z,7.81
2019-04-06T00:34:41.366Z,7.81
2019-04-06T00:34:45.661Z,7.81
2019-04-06T00:34:49.874Z,7.81
2019-04-06T00:34:54.243Z,7.81
2019-04-06T00:34:58.544Z,7.81
2019-04-06T00:35:02.931Z,7.82
2019-04-06T00:35:07.232Z,7.81
2019-04-06T00:35:11.523Z,7.81
2019-04-06T00:35:15.813Z,7.81
2019-04-06T00:35:20.153Z,7.82
2019-04-06T00:35:24.446Z,7.82
2019-04-06T00:35:28.758Z,7.82
2019-04-06T00:35:33.054Z,7.82
2019-04-06T00:35:37.389Z,7.81
2019-04-06T00:35:41.682Z,7.82
2019-04-06T00:35:45.697Z,7.82
2019-04-06T00:35:50.040Z,7.82
2019-04-06T00:35:54.330Z,7.82
2019-04-06T00:35:58.635Z,7.82
2019-04-06T00:36:03.034Z,7.83
2019-04-06T00:36:07.341Z,7.82
2019-04-06T00:36:11.654Z,7.82
2019-04-06T00:36:15.955Z,7.82
2019-04-06T00:36:20.265Z,7.82
2019-04-06T00:36:24.368Z,7.82
2019-04-06T00:36:28.575Z,7.82
2019-04-06T00:36:32.865Z,7.82
2019-04-06T00:36:37.201Z,7.81
2019-04-06T00:36:41.492Z,7.82
2019-04-06T00:36:45.794Z,7.83
2019-04-06T00:36:50.083Z,7.82
2019-04-06T00:36:54.300Z,7.82
2019-04-06T00:36:58.603Z,7.83
2019-04-06T00:37:02.902Z,7.83
2019-04-06T00:37:07.104Z,7.83
2019-04-06T00:37:11.426Z,7.83
2019-04-06T00:37:15.900Z,7.82
2019-04-06T00:37:20.250Z,7.82
2019-04-06T00:37:24.549Z,7.82
2019-04-06T00:37:28.884Z,7.82
2019-04-06T00:37:33.189Z,7.83
2019-04-06T00:37:37.479Z,7.83
2019-04-06T00:37:41.777Z,7.83
2019-04-06T00:37:46.160Z,7.82
2019-04-06T00:37:50.419Z,7.83
2019-04-06T00:37:54.717Z,7.82
2019-04-06T00:37:59.020Z,7.83
2019-04-06T00:38:03.391Z,7.83
2019-04-06T00:38:07.680Z,7.82
2019-04-06T00:38:11.967Z,7.83
2019-04-06T00:38:16.307Z,7.83
2019-04-06T00:38:20.660Z,7.83
2019-04-06T00:38:24.958Z,7.82
2019-04-06T00:38:29.168Z,7.83
2019-04-06T00:38:36.033Z,7.83
2019-04-06T00:38:40.378Z,7.83
2019-04-06T00:38:44.674Z,7.83
2019-04-06T00:38:49.011Z,7.83
2019-04-06T00:38:53.319Z,7.83
2019-04-06T00:38:57.639Z,7.83
2019-04-06T00:39:02.071Z,7.83
2019-04-06T00:39:06.398Z,7.83
2019-04-06T00:39:10.695Z,7.84
2019-04-06T00:39:15.035Z,7.83
2019-04-06T00:39:19.344Z,7.83
2019-04-06T00:39:23.660Z,7.83
2019-04-06T00:39:27.955Z,7.83
2019-04-06T00:39:32.049Z,7.83
2019-04-06T00:39:36.434Z,7.83
2019-04-06T00:39:40.771Z,7.84
2019-04-06T00:39:44.974Z,7.84
2019-04-06T00:39:49.088Z,7.84
2019-04-06T00:39:53.426Z,7.84
2019-04-06T00:39:57.812Z,7.84
2019-04-06T00:40:02.197Z,7.83
2019-04-06T00:40:06.488Z,7.84
2019-04-06T00:40:10.721Z,7.84
2019-04-06T00:40:15.022Z,7.84
2019-04-06T00:40:19.224Z,7.84
2019-04-06T00:40:23.536Z,7.84
2019-04-06T00:40:27.867Z,7.83
2019-04-06T00:40:32.213Z,7.83
2019-04-06T00:40:36.326Z,7.84
2019-04-06T00:40:40.615Z,7.84
2019-04-06T00:40:44.909Z,7.84
2019-04-06T00:40:49.201Z,7.84
2019-04-06T00:40:53.525Z,7.84
2019-04-06T00:40:57.816Z,7.84
2019-04-06T00:41:02.112Z,7.85
2019-04-06T00:41:06.402Z,7.84
2019-04-06T00:41:10.696Z,7.85
2019-04-06T00:41:14.935Z,7.84
2019-04-06T00:41:19.322Z,7.85
2019-04-06T00:41:23.509Z,7.86
2019-04-06T00:41:27.813Z,7.85
2019-04-06T00:41:32.107Z,7.86
2019-04-06T00:41:36.402Z,7.85
2019-04-06T00:41:40.691Z,7.85
2019-04-06T00:41:44.982Z,7.85
2019-04-06T00:41:49.269Z,7.85
2019-04-06T00:41:53.566Z,7.85
2019-04-06T00:41:57.868Z,7.84
2019-04-06T00:42:02.058Z,7.85
2019-04-06T00:42:06.383Z,7.84
2019-04-06T00:42:10.581Z,7.85
2019-04-06T00:42:14.876Z,7.85
2019-04-06T00:42:19.209Z,7.84
2019-04-06T00:42:23.505Z,7.84
2019-04-06T00:42:27.806Z,7.84
2019-04-06T00:42:32.134Z,7.84
2019-04-06T00:42:36.424Z,7.84
2019-04-06T00:42:40.711Z,7.85
2019-04-06T00:42:45.044Z,7.85
2019-04-06T00:42:49.338Z,7.84
2019-04-06T00:42:53.632Z,7.84
2019-04-06T00:42:57.930Z,7.83
2019-04-06T00:43:02.126Z,7.84
2019-04-06T00:43:06.531Z,7.85
2019-04-06T00:43:10.879Z,7.85
2019-04-06T00:43:15.171Z,7.85
2019-04-06T00:43:19.546Z,7.85
2019-04-06T00:43:23.839Z,7.84
2019-04-06T00:43:28.039Z,7.85
2019-04-06T00:43:32.306Z,7.86
2019-04-06T00:43:36.589Z,7.85
2019-04-06T00:43:40.887Z,7.85
2019-04-06T00:43:45.087Z,7.84
2019-04-06T00:43:49.382Z,7.85
2019-04-06T00:43:53.718Z,7.85
2019-04-06T00:43:57.992Z,7.85
2019-04-06T00:44:02.185Z,7.84
2019-04-06T00:44:06.542Z,7.85
2019-04-06T00:44:10.842Z,7.86
2019-04-06T00:44:17.563Z,7.85
2019-04-06T00:44:21.707Z,7.84
2019-04-06T00:44:25.998Z,7.84
2019-04-06T00:44:30.379Z,7.84
2019-04-06T00:44:34.570Z,7.85
2019-04-06T00:44:38.861Z,7.83
2019-04-06T00:44:43.154Z,7.84
2019-04-06T00:44:47.352Z,7.85
2019-04-06T00:44:51.646Z,7.84
2019-04-06T00:44:55.889Z,7.84
2019-04-06T00:45:00.273Z,7.84
2019-04-06T00:45:04.586Z,7.84
2019-04-06T00:45:08.777Z,7.85
2019-04-06T00:45:13.170Z,7.84
2019-04-06T00:45:17.503Z,7.84
2019-04-06T00:45:21.733Z,7.83
2019-04-06T00:45:26.079Z,7.85
2019-04-06T00:45:30.418Z,7.84
2019-04-06T00:45:34.767Z,7.85
2019-04-06T00:45:39.095Z,7.84
2019-04-06T00:45:43.289Z,7.85
2019-04-06T00:45:47.574Z,7.85
2019-04-06T00:45:51.858Z,7.84
2019-04-06T00:45:56.187Z,7.86
2019-04-06T00:46:00.491Z,7.85
2019-04-06T00:46:04.980Z,7.85
2019-04-06T00:46:09.232Z,7.85
2019-04-06T00:46:13.481Z,7.85
2019-04-06T00:46:17.777Z,7.86
2019-04-06T00:46:21.973Z,7.86
2019-04-06T00:46:26.264Z,7.85
2019-04-06T00:46:30.604Z,7.86
2019-04-06T00:46:34.899Z,7.85
2019-04-06T00:46:39.100Z,7.85
2019-04-06T00:46:43.387Z,7.85
2019-04-06T00:46:47.722Z,7.85
2019-04-06T00:46:51.992Z,7.85
2019-04-06T00:46:56.324Z,7.85
2019-04-06T00:47:00.611Z,7.85
2019-04-06T00:47:04.875Z,7.85
2019-04-06T00:47:09.239Z,7.86
2019-04-06T00:47:13.593Z,7.86
2019-04-06T00:47:17.883Z,7.85
2019-04-06T00:47:22.168Z,7.85
2019-04-06T00:47:26.460Z,7.86
2019-04-06T00:47:30.802Z,7.85
2019-04-06T00:47:34.966Z,7.85
2019-04-06T00:47:39.264Z,7.86
2019-04-06T00:47:43.565Z,7.86
2019-04-06T00:47:47.909Z,7.84
2019-04-06T00:47:52.263Z,7.85
2019-04-06T00:47:56.552Z,7.86
2019-04-06T00:48:00.855Z,7.86
2019-04-06T00:48:05.195Z,7.86
2019-04-06T00:48:09.496Z,7.87
2019-04-06T00:48:13.621Z,7.86
2019-04-06T00:48:17.812Z,7.87
2019-04-06T00:48:22.130Z,7.87
2019-04-06T00:48:26.417Z,7.86
2019-04-06T00:48:30.750Z,7.87
2019-04-06T00:48:35.099Z,7.86
2019-04-06T00:48:39.405Z,7.86
2019-04-06T00:48:43.706Z,7.87
2019-04-06T00:48:48.026Z,7.87
2019-04-06T00:48:52.319Z,7.86
2019-04-06T00:48:56.608Z,7.87
2019-04-06T00:49:00.901Z,7.87
2019-04-06T00:49:05.347Z,7.87
2019-04-06T00:49:09.552Z,7.87
2019-04-06T00:49:13.759Z,7.87
2019-04-06T00:49:18.161Z,7.87
2019-04-06T00:49:22.355Z,7.87
2019-04-06T00:49:26.644Z,7.88
2019-04-06T00:49:30.836Z,7.86
2019-04-06T00:49:35.125Z,7.87
2019-04-06T00:49:39.315Z,7.87
2019-04-06T00:49:43.689Z,7.87
2019-04-06T00:49:48.029Z,7.86
2019-04-06T00:49:52.323Z,7.88
2019-04-06T00:49:56.615Z,7.87
2019-04-06T00:50:00.723Z,7.87
2019-04-06T00:50:05.176Z,7.88
2019-04-06T00:50:09.500Z,7.87
2019-04-06T00:50:13.834Z,7.88
2019-04-06T00:50:18.175Z,7.88
2019-04-06T00:50:22.480Z,7.88
2019-04-06T00:50:26.722Z,7.89
2019-04-06T00:50:31.064Z,7.89
2019-04-06T00:50:35.410Z,7.88
2019-04-06T00:50:39.630Z,7.88
2019-04-06T00:50:43.986Z,7.89
2019-04-06T00:50:48.337Z,7.88
2019-04-06T00:50:52.619Z,7.89
2019-04-06T00:50:56.912Z,7.89
2019-04-06T00:51:01.279Z,7.89
2019-04-06T00:51:05.578Z,7.89
2019-04-06T00:51:09.866Z,7.89
2019-04-06T00:51:14.239Z,7.89
2019-04-06T00:51:18.590Z,7.89
2019-04-06T00:51:22.809Z,7.9
2019-04-06T00:51:27.109Z,7.89
2019-04-06T00:51:31.425Z,7.9
2019-04-06T00:51:35.770Z,7.9
2019-04-06T00:51:40.060Z,7.9
2019-04-06T00:51:44.372Z,7.9
2019-04-06T00:51:48.811Z,7.9
2019-04-06T00:51:53.098Z,7.91
2019-04-06T00:51:57.291Z,7.9
2019-04-06T00:52:01.681Z,7.91
2019-04-06T00:52:05.691Z,7.91
2019-04-06T00:52:09.940Z,7.9
2019-04-06T00:52:14.245Z,7.91
2019-04-06T00:52:18.568Z,7.91
2019-04-06T00:52:22.802Z,7.91
2019-04-06T00:52:27.005Z,7.92
2019-04-06T00:52:31.341Z,7.91
2019-04-06T00:52:35.629Z,7.91
2019-04-06T00:52:39.973Z,7.92
2019-04-06T00:52:44.269Z,7.92
2019-04-06T00:52:48.554Z,7.91
2019-04-06T00:52:52.890Z,7.92
2019-04-06T00:52:57.077Z,7.92
2019-04-06T00:53:01.384Z,7.92
2019-04-06T00:53:05.723Z,7.92
2019-04-06T00:53:10.009Z,7.92
2019-04-06T00:53:14.347Z,7.92
2019-04-06T00:53:18.568Z,7.92
2019-04-06T00:53:22.858Z,7.93
2019-04-06T00:53:27.184Z,7.93
2019-04-06T00:53:31.584Z,7.93
2019-04-06T00:53:35.872Z,7.93
2019-04-06T00:53:40.124Z,7.93
2019-04-06T00:53:44.529Z,7.93
2019-04-06T00:53:48.875Z,7.93
2019-04-06T00:53:53.166Z,7.94
2019-04-06T00:53:57.495Z,7.94
2019-04-06T00:54:01.786Z,7.94
2019-04-06T00:54:06.078Z,7.94
2019-04-06T00:54:10.417Z,7.95
2019-04-06T00:54:16.142Z,7.94
2019-04-06T00:54:20.887Z,7.94
2019-04-06T00:54:25.210Z,7.95
2019-04-06T00:54:29.572Z,7.95
2019-04-06T00:54:33.963Z,7.95
2019-04-06T00:54:38.249Z,7.95
2019-04-06T00:54:42.564Z,7.95
2019-04-06T00:54:46.881Z,7.95
2019-04-06T00:54:51.172Z,7.95
2019-04-06T00:54:55.478Z,7.96
2019-04-06T00:54:59.829Z,7.95
2019-04-06T00:55:04.277Z,7.96
2019-04-06T00:55:08.561Z,7.96
2019-04-06T00:55:12.757Z,7.97
2019-04-06T00:55:17.047Z,7.97
2019-04-06T00:55:21.337Z,7.96
2019-04-06T00:55:25.629Z,7.96
2019-04-06T00:55:29.914Z,7.97
2019-04-06T00:55:34.203Z,7.96
2019-04-06T00:55:38.505Z,7.96
2019-04-06T00:55:42.816Z,7.96
2019-04-06T00:55:59.012Z,7.98
2019-04-06T00:56:03.340Z,7.98
2019-04-06T00:56:07.627Z,7.98
2019-04-06T00:56:11.919Z,7.97
2019-04-06T00:56:16.217Z,7.99
2019-04-06T00:56:20.450Z,7.97
2019-04-06T00:56:24.743Z,7.98
2019-04-06T00:56:29.044Z,7.99
2019-04-06T00:56:33.273Z,7.99
2019-04-06T00:56:37.646Z,7.99
2019-04-06T00:56:41.947Z,7.98
2019-04-06T00:56:46.342Z,7.99
2019-04-06T00:56:50.636Z,7.98
2019-04-06T00:56:54.675Z,8
2019-04-06T00:56:58.967Z,8
2019-04-06T00:57:03.262Z,7.99
2019-04-06T00:57:07.467Z,8.01
2019-04-06T00:57:11.753Z,8.01
2019-04-06T00:57:16.057Z,8.01
2019-04-06T00:57:20.344Z,8.01
2019-04-06T00:57:24.638Z,8.02
2019-04-06T00:57:28.824Z,8.01
2019-04-06T00:57:33.113Z,8.01
2019-04-06T00:57:37.202Z,8.01
2019-04-06T00:57:41.495Z,8.01
2019-04-06T00:57:45.623Z,8.02
2019-04-06T00:57:49.963Z,8.01
2019-04-06T00:57:54.308Z,8.01
2019-04-06T00:57:58.675Z,8.02